createdAt,value
2023-05-12T00:03:41.407Z,101155.21
2023-05-12T00:06:10.168Z,101147.37
2023-05-12T00:08:38.530Z,101150.25
2023-05-12T00:11:07.180Z,101148.82
2023-05-12T00:13:35.497Z,101146.65
2023-05-12T00:16:04.246Z,101142.89
2023-05-12T00:18:32.607Z,101139.73
2023-05-12T00:21:00.757Z,101139.17
2023-05-12T00:23:28.975Z,101139.51
2023-05-12T00:25:57.069Z,101134.31
2023-05-12T00:28:25.054Z,101127.90
2023-05-12T00:30:53.160Z,101128.26
2023-05-12T00:33:21.236Z,101124.33
2023-05-12T00:35:49.400Z,101120.94
2023-05-12T00:38:17.583Z,101114.16
2023-05-12T00:40:45.877Z,101111.29
2023-05-12T00:43:14.677Z,101108.42
2023-05-12T00:45:44.015Z,101103.20
2023-05-12T00:48:12.540Z,101101.73
2023-05-12T00:50:40.704Z,101104.04
2023-05-12T00:53:10.079Z,101103.65
2023-05-12T00:55:38.242Z,101102.52
2023-05-12T00:58:06.452Z,101098.05
2023-05-12T01:00:34.806Z,101096.61
2023-05-12T01:03:04.610Z,101097.67
2023-05-12T01:05:59.012Z,101092.80
2023-05-12T01:08:27.558Z,101092.98
2023-05-12T01:10:55.676Z,101088.67
2023-05-12T01:13:23.928Z,101086.91
2023-05-12T01:15:54.060Z,101080.48
2023-05-12T01:18:24.520Z,101079.54
2023-05-12T01:20:55.348Z,101077.04
2023-05-12T01:23:32.059Z,101077.75
2023-05-12T01:26:07.116Z,101071.67
2023-05-12T01:28:37.175Z,101071.85
2023-05-12T01:31:07.557Z,101069.33
2023-05-12T01:33:36.924Z,101071.48
2023-05-12T01:36:05.405Z,101064.54
2023-05-12T01:38:33.575Z,101062.56
2023-05-12T01:41:01.577Z,101058.63
2023-05-12T01:43:29.712Z,101057.91
2023-05-12T01:45:58.248Z,101053.98
2023-05-12T01:48:26.506Z,101053.64
2023-05-12T01:50:54.641Z,101048.13
2023-05-12T01:53:23.212Z,101048.12
2023-05-12T01:55:51.830Z,101048.11
2023-05-12T01:58:20.003Z,101049.03
2023-05-12T02:00:48.362Z,101052.28
2023-05-12T02:03:17.125Z,101055.70
2023-05-12T02:05:45.425Z,101058.55
2023-05-12T02:08:13.490Z,101058.19
2023-05-12T02:10:41.595Z,101053.35
2023-05-12T02:13:10.316Z,101053.85
2023-05-12T02:15:38.575Z,101053.48
2023-05-12T02:18:07.263Z,101048.86
2023-05-12T02:20:35.647Z,101048.70
2023-05-12T02:23:03.684Z,101047.62
2023-05-12T02:25:31.837Z,101049.95
2023-05-12T02:27:59.882Z,101044.95
2023-05-12T02:30:27.970Z,101044.58
2023-05-12T02:32:56.227Z,101043.48
2023-05-12T02:35:25.382Z,101043.49
2023-05-12T02:37:54.242Z,101043.50
2023-05-12T02:40:22.410Z,101040.98
2023-05-12T02:42:50.920Z,101045.63
2023-05-12T02:45:19.122Z,101039.54
2023-05-12T02:47:47.544Z,101038.63
2023-05-12T02:50:15.781Z,101033.23
2023-05-12T02:52:43.906Z,101036.46
2023-05-12T02:55:12.179Z,101033.97
2023-05-12T02:57:41.138Z,101038.98
2023-05-12T03:00:09.662Z,101038.96
2023-05-12T03:02:39.164Z,101037.21
2023-05-12T03:05:08.742Z,101035.98
2023-05-12T03:07:36.837Z,101033.15
2023-05-12T03:10:05.802Z,101035.30
2023-05-12T03:12:34.909Z,101034.59
2023-05-12T03:15:03.942Z,101031.70
2023-05-12T03:17:32.339Z,101029.39
2023-05-12T03:20:00.483Z,101029.60
2023-05-12T03:22:29.390Z,101028.88
2023-05-12T03:24:57.631Z,101026.55
2023-05-12T03:27:26.285Z,101027.45
2023-05-12T03:29:54.345Z,101023.69
2023-05-12T03:32:22.480Z,101029.23
2023-05-12T03:34:51.028Z,101029.23
2023-05-12T03:37:19.166Z,101027.44
2023-05-12T03:39:47.289Z,101028.17
2023-05-12T03:42:15.954Z,101029.08
2023-05-12T03:44:44.540Z,101027.27
2023-05-12T03:47:13.301Z,101029.46
2023-05-12T03:49:41.791Z,101029.13
2023-05-12T03:52:10.038Z,101026.23
2023-05-12T03:54:38.715Z,101028.89
2023-05-12T03:57:07.120Z,101029.97
2023-05-12T03:59:35.213Z,101032.60
2023-05-12T04:02:03.473Z,101032.07
2023-05-12T04:04:32.479Z,101030.61
2023-05-12T04:07:00.530Z,101030.77
2023-05-12T04:09:31.548Z,101034.73
2023-05-12T04:12:00.266Z,101033.66
2023-05-12T04:14:39.045Z,101030.62
2023-05-12T04:17:10.985Z,101035.80
2023-05-12T04:19:39.020Z,101037.39
2023-05-12T04:22:08.482Z,101037.60
2023-05-12T04:24:37.716Z,101032.41
2023-05-12T04:27:06.985Z,101031.70
2023-05-12T04:29:35.370Z,101025.45
2023-05-12T04:32:04.129Z,101034.77
2023-05-12T04:34:32.344Z,101027.41
2023-05-12T04:37:00.502Z,101027.58
2023-05-12T04:39:29.169Z,101029.55
2023-05-12T04:41:57.724Z,101027.05
2023-05-12T04:44:26.146Z,101025.28
2023-05-12T04:46:54.345Z,101023.34
2023-05-12T04:49:22.795Z,101021.58
2023-05-12T04:51:50.789Z,101020.34
2023-05-12T04:54:18.857Z,101020.90
2023-05-12T04:56:46.920Z,101016.63
2023-05-12T04:59:15.100Z,101018.25
2023-05-12T05:01:43.736Z,101021.84
2023-05-12T05:04:13.063Z,101022.98
2023-05-12T05:06:41.355Z,101025.70
2023-05-12T05:09:09.534Z,101025.70
2023-05-12T05:11:37.806Z,101027.85
2023-05-12T05:14:05.904Z,101030.55
2023-05-12T05:16:34.026Z,101028.95
2023-05-12T05:19:06.482Z,101027.15
2023-05-12T05:21:37.314Z,101028.39
2023-05-12T05:24:09.068Z,101030.00
2023-05-12T05:26:37.253Z,101033.95
2023-05-12T05:29:05.317Z,101036.10
2023-05-12T05:31:33.859Z,101037.37
2023-05-12T05:34:02.189Z,101038.95
2023-05-12T05:36:31.564Z,101043.42
2023-05-12T05:39:00.197Z,101045.04
2023-05-12T05:41:28.372Z,101048.63
2023-05-12T05:43:56.658Z,101050.60
2023-05-12T05:46:25.088Z,101052.90
2023-05-12T05:48:53.795Z,101056.11
2023-05-12T05:51:21.956Z,101051.63
2023-05-12T05:53:50.371Z,101054.29
2023-05-12T05:56:18.493Z,101056.48
2023-05-12T05:58:46.951Z,101058.98
2023-05-12T06:01:15.540Z,101056.83
2023-05-12T06:03:43.850Z,101052.66
2023-05-12T06:06:12.258Z,101053.38
2023-05-12T06:08:40.386Z,101046.20
2023-05-12T06:11:08.456Z,101048.52
2023-05-12T06:13:36.844Z,101048.89
2023-05-12T06:16:05.923Z,101048.52
2023-05-12T06:18:34.035Z,101049.20
2023-05-12T06:21:02.989Z,101050.80
2023-05-12T06:23:31.626Z,101049.35
2023-05-12T06:25:59.994Z,101046.47
2023-05-12T06:28:28.139Z,101047.90
2023-05-12T06:30:56.728Z,101043.90
2023-05-12T06:33:24.966Z,101038.70
2023-05-12T06:35:53.197Z,101033.85
2023-05-12T06:38:21.370Z,101034.77
2023-05-12T06:40:49.406Z,101035.11
2023-05-12T06:43:17.473Z,101041.58
2023-05-12T06:45:45.804Z,101038.89
2023-05-12T06:48:14.426Z,101033.88
2023-05-12T06:50:42.531Z,101037.48
2023-05-12T06:53:11.862Z,101037.65
2023-05-12T06:55:40.297Z,101043.73
2023-05-12T06:58:08.354Z,101046.95
2023-05-12T07:00:36.890Z,101047.11
2023-05-12T07:03:05.360Z,101044.41
2023-05-12T07:05:34.869Z,101042.63
2023-05-12T07:08:06.619Z,101043.19
2023-05-12T07:10:34.802Z,101041.92
2023-05-12T07:13:03.473Z,101039.73
2023-05-12T07:15:32.969Z,101036.15
2023-05-12T07:18:01.883Z,101041.34
2023-05-12T07:20:30.705Z,101037.43
2023-05-12T07:22:58.911Z,101042.33
2023-05-12T07:25:27.146Z,101040.04
2023-05-12T07:27:55.628Z,101045.08
2023-05-12T07:30:23.805Z,101052.60
2023-05-12T07:32:51.950Z,101053.15
2023-05-12T07:35:20.301Z,101053.51
2023-05-12T07:37:49.318Z,101053.32
2023-05-12T07:40:17.949Z,101056.00
2023-05-12T07:42:46.051Z,101056.88
2023-05-12T07:45:14.352Z,101053.81
2023-05-12T07:47:43.342Z,101057.93
2023-05-12T07:50:11.904Z,101051.50
2023-05-12T07:52:47.445Z,101054.37
2023-05-12T07:55:16.929Z,101056.48
2023-05-12T07:57:45.638Z,101054.84
2023-05-12T08:00:14.323Z,101057.65
2023-05-12T08:02:43.247Z,101058.18
2023-05-12T08:05:11.920Z,101058.01
2023-05-12T08:07:41.169Z,101059.08
2023-05-12T08:12:57.404Z,101056.29
2023-05-12T08:15:25.575Z,101058.45
2023-05-12T08:17:53.917Z,101060.17
2023-05-12T08:20:22.148Z,101057.66
2023-05-12T08:22:50.299Z,101056.75
2023-05-12T08:25:18.774Z,101058.52
2023-05-12T08:27:47.268Z,101056.84
2023-05-12T08:30:15.482Z,101056.76
2023-05-12T08:32:44.894Z,101055.10
2023-05-12T08:35:13.137Z,101055.24
2023-05-12T08:37:41.297Z,101054.55
2023-05-12T08:40:16.042Z,101053.48
2023-05-12T08:42:49.538Z,101053.92
2023-05-12T08:45:19.202Z,101051.18
2023-05-12T08:47:47.570Z,101051.12
2023-05-12T08:50:18.085Z,101046.02
2023-05-12T08:52:46.671Z,101044.22
2023-05-12T08:55:15.524Z,101037.00
2023-05-12T08:57:45.233Z,101043.98
2023-05-12T09:00:15.827Z,101041.26
2023-05-12T09:02:52.831Z,101035.39
2023-05-12T09:05:25.937Z,101032.23
2023-05-12T09:07:54.842Z,101040.60
2023-05-12T09:13:03.864Z,101030.30
2023-05-12T09:15:38.677Z,101032.87
2023-05-12T09:18:07.687Z,101032.45
2023-05-12T09:20:36.879Z,101029.55
2023-05-12T09:23:21.620Z,101021.79
2023-05-12T09:26:00.268Z,101021.90
2023-05-12T09:28:39.020Z,101015.90
2023-05-12T09:31:21.698Z,101015.40
2023-05-12T09:33:52.208Z,101013.59
2023-05-12T09:36:24.635Z,101015.30
2023-05-12T09:39:03.525Z,101014.86
2023-05-12T09:41:35.655Z,101016.63
2023-05-12T09:44:04.608Z,101019.84
2023-05-12T09:46:32.854Z,101020.00
2023-05-12T09:49:01.727Z,101017.37
2023-05-12T09:51:30.301Z,101013.69
2023-05-12T09:53:58.722Z,101016.28
2023-05-12T09:56:30.968Z,101018.69
2023-05-12T09:58:59.374Z,101016.92
2023-05-12T10:01:27.546Z,101020.34
2023-05-12T10:03:57.915Z,101027.30
2023-05-12T10:06:32.167Z,101023.09
2023-05-12T10:09:12.175Z,101023.82
2023-05-12T10:11:41.333Z,101013.59
2023-05-12T10:14:10.596Z,101013.27
2023-05-12T10:16:43.930Z,101016.60
2023-05-12T10:19:18.806Z,101013.56
2023-05-12T10:21:52.377Z,101013.28
2023-05-12T10:24:22.002Z,101012.98
2023-05-12T10:26:51.104Z,101019.84
2023-05-12T10:29:25.484Z,101016.02
2023-05-12T10:31:57.970Z,101012.89
2023-05-12T10:34:48.576Z,101010.55
2023-05-12T10:37:16.813Z,101010.05
2023-05-12T10:39:53.039Z,101001.19
2023-05-12T10:42:22.632Z,100993.52
2023-05-12T10:44:55.820Z,100991.86
2023-05-12T10:47:36.690Z,100992.10
2023-05-12T10:50:05.982Z,100989.02
2023-05-12T10:52:34.202Z,100979.68
2023-05-12T10:55:04.386Z,100983.80
2023-05-12T10:57:33.985Z,100977.92
2023-05-12T11:00:04.385Z,100973.00
2023-05-12T11:02:34.692Z,100972.13
2023-05-12T11:05:11.181Z,100969.61
2023-05-12T11:07:39.905Z,100966.86
2023-05-12T11:10:08.930Z,100958.98
2023-05-12T11:12:37.617Z,100956.50
2023-05-12T11:15:07.314Z,100955.90
2023-05-12T11:17:42.116Z,100950.79
2023-05-12T11:20:22.636Z,100946.44
2023-05-12T11:22:51.872Z,100942.30
2023-05-12T11:25:20.534Z,100940.69
2023-05-12T11:27:53.140Z,100938.21
2023-05-12T11:30:23.133Z,100932.89
2023-05-12T11:33:03.528Z,100937.38
2023-05-12T11:35:32.225Z,100938.03
2023-05-12T11:38:01.805Z,100933.61
2023-05-12T11:40:30.598Z,100936.57
2023-05-12T11:43:10.297Z,100932.42
2023-05-12T11:45:38.688Z,100933.42
2023-05-12T11:48:17.223Z,100932.21
2023-05-12T11:50:46.351Z,100936.32
2023-05-12T11:53:17.355Z,100932.57
2023-05-12T11:55:53.850Z,100929.05
2023-05-12T11:58:24.824Z,100930.98
2023-05-12T12:00:54.285Z,100931.17
2023-05-12T12:03:23.624Z,100934.45
2023-05-12T12:06:03.582Z,100933.36
2023-05-12T12:08:32.385Z,100931.72
2023-05-12T12:11:03.627Z,100924.60
2023-05-12T12:13:32.221Z,100920.73
2023-05-12T12:16:00.392Z,100922.77
2023-05-12T12:18:28.593Z,100923.27
2023-05-12T12:20:57.166Z,100919.06
2023-05-12T12:23:26.251Z,100915.21
2023-05-12T12:25:54.348Z,100917.80
2023-05-12T12:28:22.665Z,100912.23
2023-05-12T12:30:51.336Z,100913.38
2023-05-12T12:33:20.698Z,100909.17
2023-05-12T12:35:49.254Z,100904.79
2023-05-12T12:38:17.445Z,100903.27
2023-05-12T12:40:45.663Z,100900.77
2023-05-12T12:43:13.888Z,100900.98
2023-05-12T12:45:41.897Z,100895.89
2023-05-12T12:48:10.342Z,100889.78
2023-05-12T12:50:38.568Z,100882.05
2023-05-12T12:53:06.632Z,100882.91
2023-05-12T12:55:36.600Z,100872.39
2023-05-12T12:58:04.802Z,100864.05
2023-05-12T13:00:32.905Z,100870.11
2023-05-12T13:03:01.391Z,100861.55
2023-05-12T13:05:29.799Z,100866.24
2023-05-12T13:07:58.015Z,100869.15
2023-05-12T13:10:26.366Z,100873.42
2023-05-12T13:12:55.366Z,100872.46
2023-05-12T13:15:23.847Z,100881.33
2023-05-12T13:17:53.055Z,100874.65
2023-05-12T13:20:22.009Z,100890.02
2023-05-12T13:22:50.610Z,100885.88
2023-05-12T13:25:18.830Z,100884.83
2023-05-12T13:27:47.385Z,100886.61
2023-05-12T13:30:16.495Z,100887.73
2023-05-12T13:32:44.883Z,100883.05
2023-05-12T13:35:13.596Z,100886.98
2023-05-12T13:37:41.898Z,100886.55
2023-05-12T13:40:10.345Z,100882.54
2023-05-12T13:42:38.519Z,100886.81
2023-05-12T13:45:08.035Z,100882.89
2023-05-12T13:47:36.140Z,100878.27
2023-05-12T13:50:05.617Z,100875.52
2023-05-12T13:52:33.728Z,100873.36
2023-05-12T13:55:01.884Z,100873.48
2023-05-12T13:57:30.034Z,100867.81
2023-05-12T13:59:58.582Z,100874.15
2023-05-12T14:02:26.609Z,100880.26
2023-05-12T14:04:55.873Z,100894.20
2023-05-12T14:07:24.961Z,100904.90
2023-05-12T14:09:53.163Z,100905.02
2023-05-12T14:12:21.897Z,100901.52
2023-05-12T14:14:50.062Z,100892.59
2023-05-12T14:17:18.704Z,100898.55
2023-05-12T14:19:46.906Z,100900.17
2023-05-12T14:22:25.438Z,100900.67
2023-05-12T14:24:54.570Z,100911.98
2023-05-12T14:27:22.717Z,100907.23
2023-05-12T14:29:50.956Z,100905.67
2023-05-12T14:32:19.234Z,100913.93
2023-05-12T14:34:47.587Z,100921.14
2023-05-12T14:37:16.276Z,100935.63
2023-05-12T14:39:44.910Z,100941.02
2023-05-12T14:42:13.508Z,100946.31
2023-05-12T14:44:42.192Z,100954.50
2023-05-12T14:47:10.920Z,100955.37
2023-05-12T14:49:39.161Z,100948.59
2023-05-12T14:52:07.179Z,100932.64
2023-05-12T14:54:36.948Z,100936.65
2023-05-12T14:57:05.805Z,100941.70
2023-05-12T14:59:34.426Z,100916.63
2023-05-12T15:02:03.116Z,100892.44
2023-05-12T15:04:31.496Z,100867.10
2023-05-12T15:07:00.157Z,100869.70
2023-05-12T15:09:28.293Z,100882.96
2023-05-12T15:11:57.890Z,100893.05
2023-05-12T15:14:26.338Z,100890.52
2023-05-12T15:16:56.769Z,100887.83
2023-05-12T15:19:26.650Z,100878.88
2023-05-12T15:21:55.969Z,100876.71
2023-05-12T15:24:26.857Z,100875.25
2023-05-12T15:26:56.035Z,100877.24
2023-05-12T15:29:24.262Z,100878.58
2023-05-12T15:31:53.651Z,100871.87
2023-05-12T15:34:23.965Z,100862.98
2023-05-12T15:36:53.057Z,100848.79
2023-05-12T15:39:23.488Z,100840.19
2023-05-12T15:41:52.390Z,100839.27
2023-05-12T15:44:22.136Z,100847.83
2023-05-12T15:46:50.950Z,100856.23
2023-05-12T15:49:20.928Z,100859.55
2023-05-12T15:51:49.192Z,100863.43
2023-05-12T15:54:17.950Z,100865.02
2023-05-12T15:56:48.877Z,100866.50
2023-05-12T15:59:18.091Z,100861.80
2023-05-12T16:01:47.378Z,100883.41
2023-05-12T16:04:15.693Z,100899.61
2023-05-12T16:06:44.979Z,100909.30
2023-05-12T16:09:13.545Z,100912.91
2023-05-12T16:15:15.285Z,100906.60
2023-05-12T16:17:43.606Z,100896.11
2023-05-12T16:20:14.535Z,100879.95
2023-05-12T16:22:43.793Z,100869.13
2023-05-12T16:25:12.493Z,100883.02
2023-05-12T16:27:40.861Z,100899.06
2023-05-12T16:30:10.729Z,100903.50
2023-05-12T16:32:39.320Z,100896.19
2023-05-12T16:35:10.160Z,100892.45
2023-05-12T16:37:38.793Z,100891.38
2023-05-12T16:40:08.466Z,100883.93
2023-05-12T16:42:37.700Z,100886.77
2023-05-12T16:45:08.263Z,100885.71
2023-05-12T16:47:37.752Z,100888.21
2023-05-12T16:50:07.647Z,100889.98
2023-05-12T16:52:36.206Z,100896.21
2023-05-12T16:55:05.834Z,100899.60
2023-05-12T16:57:35.695Z,100895.86
2023-05-12T17:00:06.174Z,100894.62
2023-05-12T17:02:35.299Z,100883.75
2023-05-12T17:05:05.476Z,100884.61
2023-05-12T17:07:34.682Z,100880.34
2023-05-12T17:10:03.132Z,100881.91
2023-05-12T17:12:32.189Z,100893.46
2023-05-12T17:15:08.036Z,100895.10
2023-05-12T17:17:51.543Z,100883.66
2023-05-12T17:20:20.709Z,100883.48
2023-05-12T17:22:49.988Z,100884.55
2023-05-12T17:25:19.920Z,100885.27
2023-05-12T17:27:48.678Z,100886.15
2023-05-12T17:30:17.804Z,100890.41
2023-05-12T17:32:45.953Z,100885.44
2023-05-12T17:35:14.637Z,100885.05
2023-05-12T17:37:42.929Z,100887.02
2023-05-12T17:40:16.086Z,100886.83
2023-05-12T17:42:45.065Z,100890.57
2023-05-12T17:45:13.775Z,100890.73
2023-05-12T17:47:44.632Z,100885.00
2023-05-12T17:50:13.695Z,100879.12
2023-05-12T17:52:43.128Z,100870.57
2023-05-12T17:55:11.475Z,100874.64
2023-05-12T17:57:39.486Z,100881.05
2023-05-12T18:00:08.188Z,100881.39
2023-05-12T18:02:39.545Z,100873.02
2023-05-12T18:05:08.762Z,100862.19
2023-05-12T18:07:38.101Z,100862.38
2023-05-12T18:10:11.188Z,100859.36
2023-05-12T18:12:40.124Z,100868.26
2023-05-12T18:15:08.935Z,100875.55
2023-05-12T18:17:37.315Z,100887.28
2023-05-12T18:20:06.786Z,100901.48
2023-05-12T18:22:35.127Z,100918.75
2023-05-12T18:25:03.188Z,100927.27
2023-05-12T18:27:31.223Z,100927.26
2023-05-12T18:29:59.443Z,100934.55
2023-05-12T18:32:27.644Z,100940.77
2023-05-12T18:34:56.020Z,100949.67
2023-05-12T18:37:24.027Z,100957.52
2023-05-12T18:39:52.421Z,100961.41
2023-05-12T18:42:20.481Z,100962.63
2023-05-12T18:44:48.618Z,100960.73
2023-05-12T18:47:16.667Z,100968.60
2023-05-12T18:49:45.187Z,100974.48
2023-05-12T18:52:13.173Z,100978.40
2023-05-12T18:54:41.205Z,100991.34
2023-05-12T18:57:09.869Z,100996.15
2023-05-12T18:59:37.856Z,100999.70
2023-05-12T19:02:07.129Z,100992.98
2023-05-12T19:04:35.606Z,100988.66
2023-05-12T19:07:04.281Z,100980.11
2023-05-12T19:09:33.205Z,100982.09
2023-05-12T19:12:02.222Z,100984.23
2023-05-12T19:14:30.252Z,100991.15
2023-05-12T19:16:58.450Z,101000.88
2023-05-12T19:19:27.049Z,101013.58
2023-05-12T19:21:55.268Z,101013.27
2023-05-12T19:24:25.959Z,100995.27
2023-05-12T19:26:54.811Z,100981.52
2023-05-12T19:29:23.492Z,100981.52
2023-05-12T19:31:52.810Z,100988.26
2023-05-12T19:34:21.353Z,100989.30
2023-05-12T19:36:52.026Z,100992.11
2023-05-12T19:39:20.126Z,100990.64
2023-05-12T19:41:48.588Z,100991.50
2023-05-12T19:44:17.556Z,100993.78
2023-05-12T19:46:46.699Z,100997.70
2023-05-12T19:49:15.440Z,101006.60
2023-05-12T19:51:44.626Z,101021.59
2023-05-12T19:54:12.784Z,101029.29
2023-05-12T19:56:40.788Z,101037.11
2023-05-12T19:59:11.105Z,101044.73
2023-05-12T20:01:39.769Z,101046.39
2023-05-12T20:04:08.081Z,101044.53
2023-05-12T20:06:37.106Z,101036.42
2023-05-12T20:09:05.220Z,101027.77
2023-05-12T20:11:34.400Z,101024.60
2023-05-12T20:14:05.344Z,101037.77
2023-05-12T20:16:33.620Z,101052.13
2023-05-12T20:19:02.995Z,101047.30
2023-05-12T20:21:31.709Z,101041.26
2023-05-12T20:23:59.812Z,101034.52
2023-05-12T20:26:28.340Z,101045.89
2023-05-12T20:28:58.723Z,101049.43
2023-05-12T20:31:27.249Z,101043.41
2023-05-12T20:33:56.721Z,101045.01
2023-05-12T20:36:25.512Z,101039.29
2023-05-12T20:38:53.447Z,101036.42
2023-05-12T20:41:22.775Z,101030.01
2023-05-12T20:43:50.905Z,101027.63
2023-05-12T20:46:20.462Z,101037.42
2023-05-12T20:48:50.172Z,101049.51
2023-05-12T20:51:18.322Z,101048.81
2023-05-12T20:53:46.380Z,101037.27
2023-05-12T20:56:15.125Z,101027.51
2023-05-12T20:58:44.239Z,101029.44
2023-05-12T21:01:12.248Z,101033.34
2023-05-12T21:03:40.339Z,101043.26
2023-05-12T21:06:09.018Z,101045.84
2023-05-12T21:08:37.723Z,101045.11
2023-05-12T21:11:18.799Z,101037.67
2023-05-12T21:13:48.642Z,101036.08
2023-05-12T21:16:17.459Z,101046.38
2023-05-12T21:18:46.541Z,101057.08
2023-05-12T21:21:15.094Z,101069.53
2023-05-12T21:23:43.186Z,101071.48
2023-05-12T21:26:11.665Z,101064.14
2023-05-12T21:28:39.848Z,101066.65
2023-05-12T21:31:07.908Z,101074.02
2023-05-12T21:33:35.983Z,101085.36
2023-05-12T21:36:04.624Z,101091.04
2023-05-12T21:38:32.838Z,101087.62
2023-05-12T21:41:00.939Z,101080.99
2023-05-12T21:43:29.374Z,101081.56
2023-05-12T21:46:02.198Z,101094.52
2023-05-12T21:48:32.461Z,101099.81
2023-05-12T21:51:02.161Z,101106.77
2023-05-12T21:53:30.392Z,101107.34
2023-05-12T21:55:58.409Z,101112.52
2023-05-12T21:58:27.889Z,101112.34
2023-05-12T22:00:56.179Z,101108.26
2023-05-12T22:03:24.628Z,101100.96
2023-05-12T22:05:52.754Z,101086.19
2023-05-12T22:08:20.741Z,101084.77
2023-05-12T22:10:49.249Z,101078.05
2023-05-12T22:13:17.890Z,101070.22
2023-05-12T22:15:45.967Z,101061.33
2023-05-12T22:18:14.118Z,101051.56
2023-05-12T22:20:42.506Z,101041.77
2023-05-12T22:23:10.656Z,101040.13
2023-05-12T22:25:38.859Z,101036.02
2023-05-12T22:28:07.324Z,101031.52
2023-05-12T22:30:35.565Z,101031.86
2023-05-12T22:33:03.606Z,101030.09
2023-05-12T22:35:31.958Z,101036.10
2023-05-12T22:38:00.460Z,101031.44
2023-05-12T22:40:28.624Z,101025.15
2023-05-12T22:42:56.925Z,101030.08
2023-05-12T22:45:25.006Z,101036.92
2023-05-12T22:47:53.540Z,101043.77
2023-05-12T22:50:23.522Z,101061.33
2023-05-12T22:52:51.898Z,101057.43
2023-05-12T22:55:20.181Z,101050.45
2023-05-12T22:57:48.244Z,101046.55
2023-05-12T23:00:16.468Z,101045.17
2023-05-12T23:02:44.852Z,101043.45
2023-05-12T23:05:12.985Z,101033.56
2023-05-12T23:07:40.952Z,101044.83
2023-05-12T23:10:09.473Z,101048.40
2023-05-12T23:12:37.945Z,101048.64
2023-05-12T23:15:06.917Z,101046.77
2023-05-12T23:17:35.118Z,101043.09
2023-05-12T23:20:05.029Z,101049.00
2023-05-12T23:22:33.043Z,101048.67
2023-05-12T23:25:01.347Z,101044.23
2023-05-12T23:27:29.732Z,101045.06
2023-05-12T23:29:57.907Z,101045.92
2023-05-12T23:32:26.110Z,101056.97
2023-05-12T23:34:54.938Z,101068.86
2023-05-12T23:37:22.977Z,101076.13
2023-05-12T23:39:51.305Z,101082.34
2023-05-12T23:42:19.963Z,101084.44
2023-05-12T23:44:47.984Z,101075.88
2023-05-12T23:47:16.193Z,101079.88
2023-05-12T23:49:44.791Z,101077.40
2023-05-12T23:52:12.796Z,101064.77
2023-05-12T23:54:40.835Z,101041.11
2023-05-12T23:57:09.452Z,101029.89
2023-05-12T23:59:37.620Z,101021.52
